Time;durP1;ratioP1;P1;durP2;ratioP2;P2;SDS_P1;SDS_P2;PMS_P1;PMS_P2;Temp;Humidity;BMP_temperature;BMP_pressure;BME280_temperature;BME280_humidity;BME280_pressure;Samples;Min_cycle;Max_cycle;Signal;HPM_P1;HPM_P2
2023/02/12 00:01:24;;;;;;;66.00;36.43;;;9.70;99.90;;;;;;5024661;28;20215;-70
2023/02/12 00:03:50;;;;;;;60.37;36.13;;;9.70;99.90;;;;;;5031049;28;20850;-71
2023/02/12 00:06:16;;;;;;;61.90;35.00;;;9.70;99.90;;;;;;5029473;28;20500;-69
2023/02/12 00:08:42;;;;;;;63.53;34.90;;;9.70;99.90;;;;;;5022127;28;20184;-70
2023/02/12 00:11:08;;;;;;;71.27;38.07;;;9.70;99.90;;;;;;5026591;28;20239;-69
2023/02/12 00:13:34;;;;;;;65.23;37.70;;;9.70;99.90;;;;;;5025522;28;20860;-69
2023/02/12 00:16:03;;;;;;;66.40;35.47;;;9.70;99.90;;;;;;5021972;28;20219;-69
2023/02/12 00:18:29;;;;;;;63.87;35.50;;;9.70;99.90;;;;;;5021239;28;20223;-68
2023/02/12 00:20:57;;;;;;;64.83;35.87;;;9.70;99.90;;;;;;5021234;28;20804;-69
2023/02/12 00:23:23;;;;;;;70.77;36.50;;;9.70;99.90;;;;;;5019340;28;20187;-69
2023/02/12 00:25:48;;;;;;;75.00;37.20;;;9.70;99.90;;;;;;5022510;28;20432;-70
2023/02/12 00:28:14;;;;;;;63.67;35.87;;;9.70;99.90;;;;;;5024757;28;20179;-70
2023/02/12 00:30:39;;;;;;;77.23;37.93;;;9.70;99.90;;;;;;5023846;28;20187;-69
2023/02/12 00:33:05;;;;;;;72.47;38.27;;;9.70;99.90;;;;;;5025170;28;20192;-70
2023/02/12 00:35:30;;;;;;;54.73;32.57;;;9.70;99.90;;;;;;5026505;28;20180;-69
2023/02/12 00:37:56;;;;;;;63.40;35.67;;;9.70;99.90;;;;;;5011093;28;20176;-68
2023/02/12 00:40:22;;;;;;;70.60;36.40;;;9.60;99.90;;;;;;5022116;28;20235;-69
2023/02/12 00:42:47;;;;;;;62.90;36.17;;;9.60;99.90;;;;;;5027411;28;20191;-68
2023/02/12 00:45:13;;;;;;;64.47;37.83;;;9.70;99.90;;;;;;5032081;28;20187;-68
2023/02/12 00:47:38;;;;;;;70.97;36.57;;;9.70;99.90;;;;;;5031922;28;20207;-69
2023/02/12 00:50:05;;;;;;;71.33;36.53;;;9.70;99.90;;;;;;5026032;28;20265;-69
2023/02/12 00:52:30;;;;;;;61.37;35.90;;;9.70;99.90;;;;;;5019514;28;20290;-70
2023/02/12 00:54:56;;;;;;;67.80;36.97;;;9.70;99.90;;;;;;5023289;28;21045;-69
2023/02/12 00:57:21;;;;;;;66.73;36.50;;;9.70;99.90;;;;;;5024968;28;20631;-70
2023/02/12 00:59:47;;;;;;;69.13;38.27;;;9.70;99.90;;;;;;5026808;28;20211;-69
2023/02/12 01:02:12;;;;;;;60.30;33.23;;;9.70;99.90;;;;;;5026507;28;20172;-69
2023/02/12 01:04:38;;;;;;;66.60;34.60;;;9.70;99.90;;;;;;5026522;28;20649;-69
2023/02/12 01:07:03;;;;;;;63.57;36.93;;;9.70;99.90;;;;;;5025166;28;20535;-69
2023/02/12 01:09:29;;;;;;;62.67;34.07;;;9.70;99.90;;;;;;5021270;28;20184;-70
2023/02/12 01:11:54;;;;;;;62.87;36.30;;;9.70;99.90;;;;;;5021055;28;20204;-70
2023/02/12 01:14:20;;;;;;;70.20;33.03;;;9.70;99.90;;;;;;5020341;28;20180;-70
2023/02/12 01:16:45;;;;;;;74.47;36.93;;;9.70;99.90;;;;;;5020380;28;20263;-69
2023/02/12 01:19:12;;;;;;;57.27;34.20;;;9.70;99.90;;;;;;5026048;28;20785;-70
2023/02/12 01:21:37;;;;;;;66.00;35.50;;;9.70;99.90;;;;;;5030225;28;20190;-68
2023/02/12 01:24:03;;;;;;;59.47;35.43;;;9.70;99.90;;;;;;5030447;28;20985;-69
2023/02/12 01:26:30;;;;;;;68.73;36.10;;;9.60;99.90;;;;;;5031371;28;20187;-69
2023/02/12 01:29:00;;;;;;;60.83;35.13;;;9.60;99.90;;;;;;5030224;28;20462;-69
2023/02/12 01:31:27;;;;;;;71.03;37.33;;;9.60;99.90;;;;;;5029859;28;20478;-68
2023/02/12 01:33:55;;;;;;;65.70;36.27;;;9.60;99.90;;;;;;5030219;28;20831;-69
2023/02/12 01:36:21;;;;;;;61.50;34.97;;;9.60;99.90;;;;;;5029852;28;20445;-68
2023/02/12 01:38:48;;;;;;;65.93;35.43;;;9.60;99.90;;;;;;5029795;28;20508;-68
2023/02/12 01:41:19;;;;;;;68.17;35.40;;;9.60;99.90;;;;;;5029666;28;20512;-69
2023/02/12 01:43:45;;;;;;;56.23;33.00;;;9.50;99.90;;;;;;5029815;28;20819;-69
2023/02/12 01:46:13;;;;;;;65.83;36.00;;;9.50;99.90;;;;;;5007383;28;20465;-69
2023/02/12 01:48:45;;;;;;;64.53;34.93;;;9.50;99.90;;;;;;5031679;28;20434;-69
2023/02/12 01:51:14;;;;;;;67.37;38.60;;;9.50;99.90;;;;;;5030974;28;20541;-70
2023/02/12 01:53:45;;;;;;;67.43;37.20;;;9.50;99.90;;;;;;5028269;28;20441;-69
2023/02/12 01:56:11;;;;;;;74.37;35.90;;;9.50;99.90;;;;;;5031560;28;20434;-69
2023/02/12 01:58:41;;;;;;;69.00;36.37;;;9.50;99.90;;;;;;5031289;28;20485;-68
2023/02/12 02:01:12;;;;;;;82.97;38.30;;;9.40;99.90;;;;;;5031648;28;20350;-68
2023/02/12 02:03:39;;;;;;;70.77;37.77;;;9.40;99.90;;;;;;5031366;28;20572;-68
2023/02/12 02:06:12;;;;;;;81.40;37.57;;;9.50;99.90;;;;;;5031638;28;20434;-68
2023/02/12 02:08:40;;;;;;;65.70;37.10;;;9.50;99.90;;;;;;5011732;28;20489;-68
2023/02/12 02:14:31;;;;;;;79.00;40.30;;;9.50;99.90;;;;;;5031238;28;20431;-68
2023/02/12 02:16:41;;;;;;;69.10;37.80;;;9.40;99.90;;;;;;5031590;28;20445;-68
2023/02/12 02:19:34;;;;;;;75.77;39.53;;;9.40;99.90;;;;;;5031161;28;20833;-68
2023/02/12 02:22:17;;;;;;;75.73;40.00;;;9.40;99.90;;;;;;5031325;28;20433;-68
2023/02/12 02:25:10;;;;;;;88.70;38.80;;;9.30;99.90;;;;;;5030101;28;20511;-68
2023/02/12 02:27:54;;;;;;;71.50;36.67;;;9.30;99.90;;;;;;5034985;28;20454;-68
2023/02/12 02:30:44;;;;;;;84.77;38.40;;;9.40;99.90;;;;;;5034397;28;20433;-67
2023/02/12 02:33:14;;;;;;;74.23;36.10;;;9.40;99.90;;;;;;4986008;28;20485;-67
2023/02/12 02:35:51;;;;;;;71.50;37.57;;;9.40;99.90;;;;;;5034473;28;20811;-67
2023/02/12 02:38:19;;;;;;;75.83;37.23;;;9.30;99.90;;;;;;5033602;28;20944;-67
2023/02/12 02:41:01;;;;;;;72.90;36.47;;;9.30;99.90;;;;;;5034707;28;20496;-68
2023/02/12 02:43:33;;;;;;;71.67;35.60;;;9.30;99.90;;;;;;5033022;28;21019;-68
2023/02/12 02:46:07;;;;;;;77.67;38.83;;;9.30;99.90;;;;;;5031674;28;20456;-68
2023/02/12 02:48:37;;;;;;;70.57;37.83;;;9.30;99.90;;;;;;5034371;28;20434;-68
2023/02/12 02:51:08;;;;;;;69.90;38.20;;;9.30;99.90;;;;;;5034420;28;20438;-68
2023/02/12 02:53:40;;;;;;;70.00;37.73;;;9.30;99.90;;;;;;5034224;28;20833;-67
2023/02/12 02:56:10;;;;;;;74.50;39.20;;;9.30;99.90;;;;;;5031187;28;20450;-67
2023/02/12 02:58:48;;;;;;;79.73;36.63;;;9.30;99.90;;;;;;5034366;28;20475;-68
2023/02/12 03:01:31;;;;;;;66.40;36.13;;;9.30;99.90;;;;;;5033122;28;20438;-69
2023/02/12 03:04:06;;;;;;;78.00;39.70;;;9.30;99.90;;;;;;5033141;28;20517;-67
2023/02/12 03:06:46;;;;;;;66.17;36.07;;;9.30;99.90;;;;;;5033037;28;20434;-67
2023/02/12 03:09:19;;;;;;;67.27;34.80;;;9.30;99.90;;;;;;5015424;28;20445;-67
2023/02/12 03:11:46;;;;;;;85.90;37.33;;;9.20;99.90;;;;;;5031853;28;20434;-67
2023/02/12 03:14:17;;;;;;;67.40;35.00;;;9.20;99.90;;;;;;5033937;28;20434;-67
2023/02/12 03:16:51;;;;;;;69.43;36.20;;;9.30;99.90;;;;;;5034000;28;20573;-68
2023/02/12 03:19:21;;;;;;;67.10;35.97;;;9.20;99.90;;;;;;5033669;28;20836;-67
2023/02/12 03:21:56;;;;;;;80.43;38.90;;;9.20;99.90;;;;;;5030765;28;20517;-68
2023/02/12 03:24:45;;;;;;;63.07;35.40;;;9.30;99.90;;;;;;5033933;28;20944;-67
2023/02/12 03:27:30;;;;;;;71.27;38.00;;;9.20;99.90;;;;;;5033955;28;20521;-68
2023/02/12 03:29:57;;;;;;;67.20;37.77;;;9.30;99.90;;;;;;5031198;28;20434;-68
2023/02/12 03:32:39;;;;;;;70.33;38.00;;;9.20;99.90;;;;;;5031595;28;20481;-68
2023/02/12 03:35:29;;;;;;;65.83;36.20;;;9.30;99.90;;;;;;5031967;28;20457;-68
2023/02/12 03:38:06;;;;;;;68.17;36.23;;;9.20;99.90;;;;;;5031440;28;20437;-68
2023/02/12 05:31:01;;;;;;;62.33;33.63;;;9.30;99.90;;;;;;5812274;23;20494;-71
2023/02/12 05:33:27;;;;;;;69.00;33.43;;;9.20;99.90;;;;;;5010874;28;20451;-72
2023/02/12 05:35:52;;;;;;;61.87;35.17;;;9.20;99.90;;;;;;4993796;28;20487;-71
2023/02/12 05:38:18;;;;;;;62.63;33.00;;;9.20;99.90;;;;;;4994661;28;20180;-71
2023/02/12 05:40:43;;;;;;;62.37;31.20;;;9.20;99.90;;;;;;4996933;28;20581;-71
2023/02/12 05:43:09;;;;;;;66.57;33.10;;;9.20;99.90;;;;;;4998363;28;20181;-71
2023/02/12 05:45:36;;;;;;;58.20;33.50;;;9.20;99.90;;;;;;4999954;28;20188;-71
2023/02/12 05:48:02;;;;;;;56.93;33.40;;;9.20;99.90;;;;;;5001752;28;20432;-71
2023/02/12 05:50:28;;;;;;;61.77;33.60;;;9.20;99.90;;;;;;5003674;28;20442;-71
2023/02/12 05:52:54;;;;;;;62.97;34.57;;;9.20;99.90;;;;;;5005075;28;20443;-72
2023/02/12 05:55:20;;;;;;;57.07;32.37;;;9.20;99.90;;;;;;5006674;28;20234;-72
2023/02/12 05:57:46;;;;;;;62.13;34.50;;;9.20;99.90;;;;;;4996672;28;20188;-72
2023/02/12 06:00:12;;;;;;;57.90;31.63;;;9.20;99.90;;;;;;4998408;28;20472;-72
2023/02/12 06:02:37;;;;;;;67.10;33.23;;;9.20;99.90;;;;;;5001977;28;20524;-71
2023/02/12 06:05:03;;;;;;;58.87;32.87;;;9.20;99.90;;;;;;5014788;28;20450;-72
2023/02/12 06:07:28;;;;;;;62.37;34.00;;;9.20;99.90;;;;;;5012913;28;20180;-72
2023/02/12 06:09:54;;;;;;;50.87;30.77;;;9.20;99.90;;;;;;5011399;28;20191;-74
2023/02/12 06:12:20;;;;;;;56.77;31.53;;;9.20;99.90;;;;;;5009539;28;20199;-74
2023/02/12 06:14:46;;;;;;;59.07;32.63;;;9.20;99.90;;;;;;5007534;28;20223;-72
2023/02/12 06:17:12;;;;;;;62.20;31.63;;;9.20;99.90;;;;;;5005193;28;20432;-72
2023/02/12 06:19:38;;;;;;;59.77;31.73;;;9.20;99.90;;;;;;5003168;28;20575;-73
2023/02/12 06:22:03;;;;;;;62.93;33.60;;;9.20;99.90;;;;;;5001639;28;20515;-74
2023/02/12 06:24:29;;;;;;;62.53;32.70;;;9.30;99.90;;;;;;4999834;28;20188;-74
2023/02/12 06:26:54;;;;;;;55.00;29.33;;;9.30;99.90;;;;;;4997965;28;20185;-75
2023/02/12 06:29:21;;;;;;;58.47;33.00;;;9.20;99.90;;;;;;4996209;28;20550;-74
2023/02/12 06:31:47;;;;;;;55.60;33.30;;;9.20;99.90;;;;;;4995960;28;20264;-75
2023/02/12 06:34:16;;;;;;;59.83;31.93;;;9.20;99.90;;;;;;4997880;28;20464;-72
2023/02/12 06:36:45;;;;;;;50.60;31.60;;;9.20;99.90;;;;;;4999251;28;20435;-74
2023/02/12 06:39:14;;;;;;;58.30;32.03;;;9.20;99.90;;;;;;5008586;28;20895;-74
2023/02/12 06:41:39;;;;;;;65.50;33.30;;;9.20;99.90;;;;;;5007088;28;20419;-72
2023/02/12 06:44:05;;;;;;;60.10;34.13;;;9.30;99.90;;;;;;5013415;28;20497;-74
2023/02/12 06:46:31;;;;;;;68.27;35.87;;;9.30;99.90;;;;;;5009988;28;20606;-74
2023/02/12 06:48:59;;;;;;;68.90;32.73;;;9.20;99.90;;;;;;4995477;28;20453;-73
2023/02/12 06:51:26;;;;;;;63.00;34.70;;;9.20;99.90;;;;;;5009941;28;20188;-73
2023/02/12 06:53:53;;;;;;;63.10;34.23;;;9.20;99.90;;;;;;5011416;28;20438;-72
2023/02/12 06:56:21;;;;;;;71.03;34.90;;;9.30;99.90;;;;;;4997141;28;20440;-74
2023/02/12 06:58:51;;;;;;;66.40;35.57;;;9.30;99.90;;;;;;5007178;28;20462;-74
2023/02/12 07:01:20;;;;;;;61.40;32.40;;;9.30;99.90;;;;;;5008312;28;20440;-72
2023/02/12 07:03:51;;;;;;;62.70;35.47;;;9.30;99.90;;;;;;5010014;28;20792;-71
2023/02/12 07:06:17;;;;;;;69.20;33.80;;;9.30;99.90;;;;;;5011453;28;20443;-74
2023/02/12 07:08:43;;;;;;;60.67;33.27;;;9.30;99.90;;;;;;5011923;28;20776;-73
2023/02/12 07:11:09;;;;;;;56.33;32.07;;;9.30;99.90;;;;;;5012312;28;20503;-74
2023/02/12 07:13:35;;;;;;;59.87;32.70;;;9.30;99.90;;;;;;5011578;28;20251;-76
2023/02/12 07:16:09;;;;;;;56.77;32.87;;;9.30;99.90;;;;;;5011493;28;20463;-73
2023/02/12 07:18:36;;;;;;;61.77;33.20;;;9.30;99.90;;;;;;5008231;28;20195;-75
2023/02/12 07:21:02;;;;;;;59.37;32.60;;;9.30;99.90;;;;;;5010771;28;20443;-75
2023/02/12 07:23:27;;;;;;;60.63;34.97;;;9.30;99.90;;;;;;5012652;28;20435;-77
2023/02/12 07:26:00;;;;;;;60.77;32.50;;;9.30;99.90;;;;;;5013431;28;20547;-75
2023/02/12 07:28:27;;;;;;;65.83;34.53;;;9.40;99.90;;;;;;5011513;28;20180;-76
2023/02/12 07:30:53;;;;;;;66.03;33.97;;;9.40;99.90;;;;;;5009520;28;20483;-75
2023/02/12 07:33:18;;;;;;;59.63;35.77;;;9.40;99.90;;;;;;5003757;28;20784;-76
2023/02/12 07:35:45;;;;;;;55.43;32.50;;;9.40;99.90;;;;;;5001396;28;20611;-70
2023/02/12 07:38:11;;;;;;;62.43;35.43;;;9.40;99.90;;;;;;5002531;28;20428;-71
2023/02/12 07:40:36;;;;;;;66.77;34.87;;;9.40;99.90;;;;;;5005125;28;20473;-71
2023/02/12 07:43:02;;;;;;;59.97;33.30;;;9.40;99.90;;;;;;5006328;28;20428;-70
2023/02/12 07:45:27;;;;;;;69.40;35.77;;;9.40;99.90;;;;;;5009312;28;20305;-71
2023/02/12 07:47:53;;;;;;;65.83;35.30;;;9.40;99.90;;;;;;5008869;28;20531;-71
2023/02/12 07:50:18;;;;;;;65.63;34.40;;;9.40;99.90;;;;;;5006701;28;20661;-71
2023/02/12 07:52:44;;;;;;;64.60;36.83;;;9.40;99.90;;;;;;5006329;28;20306;-71
2023/02/12 07:55:09;;;;;;;59.37;34.53;;;9.40;99.90;;;;;;5004717;28;20187;-71
2023/02/12 07:57:35;;;;;;;64.17;38.17;;;9.40;99.90;;;;;;5007028;28;20204;-71
2023/02/12 08:00:03;;;;;;;60.87;34.10;;;9.50;99.90;;;;;;5009479;28;20211;-82
2023/02/12 08:02:28;;;;;;;62.00;31.83;;;9.50;99.90;;;;;;5005659;28;20415;-76
2023/02/12 08:04:57;;;;;;;56.53;32.93;;;9.50;99.90;;;;;;5004102;28;20941;-75
2023/02/12 08:07:23;;;;;;;60.37;30.97;;;9.50;99.90;;;;;;5002656;28;20211;-79
2023/02/12 08:09:49;;;;;;;60.77;32.73;;;9.50;99.90;;;;;;5000348;28;20435;-77
2023/02/12 08:12:15;;;;;;;64.73;35.60;;;9.50;99.90;;;;;;5008662;28;20250;-76
2023/02/12 08:14:41;;;;;;;59.00;32.27;;;9.60;99.90;;;;;;5007951;28;20471;-74
2023/02/12 08:17:07;;;;;;;51.77;32.70;;;9.60;99.90;;;;;;5007094;28;20636;-74
2023/02/12 08:19:33;;;;;;;61.87;35.30;;;9.60;99.90;;;;;;5006295;28;20211;-75
2023/02/12 08:22:01;;;;;;;63.20;35.63;;;9.60;99.90;;;;;;4998898;28;20432;-73
2023/02/12 08:24:26;;;;;;;69.37;36.30;;;9.60;99.90;;;;;;4996705;28;20432;-71
2023/02/12 08:26:52;;;;;;;56.60;34.90;;;9.60;99.90;;;;;;4990526;28;20462;-74
2023/02/12 08:29:20;;;;;;;56.37;31.03;;;9.60;99.90;;;;;;5009948;28;20193;-74
2023/02/12 08:31:48;;;;;;;65.13;35.60;;;9.70;99.90;;;;;;5010531;28;20238;-74
2023/02/12 08:34:18;;;;;;;71.10;35.20;;;9.70;99.90;;;;;;5009987;28;20474;-74
2023/02/12 08:36:45;;;;;;;64.57;33.90;;;9.70;99.90;;;;;;4985684;28;20975;-74
2023/02/12 08:39:12;;;;;;;71.23;33.63;;;9.70;99.90;;;;;;4999139;28;20464;-74
2023/02/12 08:41:38;;;;;;;57.90;32.73;;;9.80;99.90;;;;;;4997482;28;20955;-74
2023/02/12 08:44:04;;;;;;;56.83;31.40;;;9.80;99.90;;;;;;4996203;28;20462;-74
2023/02/12 08:46:35;;;;;;;60.20;33.00;;;9.80;99.90;;;;;;4994313;28;20559;-74
2023/02/12 08:49:13;;;;;;;51.00;31.17;;;9.80;99.90;;;;;;4994853;28;20428;-74
2023/02/12 08:51:42;;;;;;;61.20;33.40;;;9.80;99.90;;;;;;5007931;28;20438;-75
2023/02/12 08:54:11;;;;;;;61.20;33.93;;;9.80;99.90;;;;;;5008279;28;20430;-76
2023/02/12 08:56:36;;;;;;;59.70;36.13;;;9.90;99.90;;;;;;5006716;28;20447;-75
2023/02/12 08:59:04;;;;;;;58.70;31.60;;;9.90;99.90;;;;;;5004850;28;20983;-75
2023/02/12 09:01:32;;;;;;;66.17;37.00;;;9.90;99.90;;;;;;5003703;28;20790;-74
2023/02/12 09:03:58;;;;;;;56.40;32.37;;;9.90;99.90;;;;;;5005738;28;20875;-73
2023/02/12 09:06:25;;;;;;;62.43;35.30;;;9.90;99.90;;;;;;5007163;28;20435;-73
2023/02/12 09:08:52;;;;;;;62.83;33.70;;;9.90;99.90;;;;;;5008871;28;20456;-73
2023/02/12 09:11:29;;;;;;;58.47;33.27;;;9.90;99.90;;;;;;5010014;28;20431;-74
2023/02/12 09:13:59;;;;;;;57.50;33.43;;;9.90;99.90;;;;;;5002907;28;21214;-73
2023/02/12 09:16:26;;;;;;;69.97;33.63;;;10.00;99.90;;;;;;4992765;28;20490;-73
2023/02/12 09:18:53;;;;;;;62.30;33.90;;;10.00;99.90;;;;;;4994419;28;20565;-73
2023/02/12 09:21:18;;;;;;;59.83;32.50;;;10.00;99.90;;;;;;4996575;28;20527;-73
2023/02/12 09:23:45;;;;;;;69.00;34.10;;;10.10;99.90;;;;;;4997885;28;21173;-74
2023/02/12 09:26:14;;;;;;;53.07;31.77;;;10.10;99.90;;;;;;4999763;28;20189;-74
2023/02/12 09:28:40;;;;;;;54.67;31.40;;;10.10;99.90;;;;;;5003435;28;20432;-74
2023/02/12 09:31:12;;;;;;;56.63;32.13;;;10.20;99.90;;;;;;5005080;28;20562;-74
2023/02/12 09:33:38;;;;;;;62.33;33.03;;;10.20;99.90;;;;;;5007836;28;20521;-74
2023/02/12 09:36:06;;;;;;;57.87;30.63;;;10.20;99.90;;;;;;5012662;28;20766;-74
2023/02/12 09:38:32;;;;;;;59.63;31.83;;;10.30;99.90;;;;;;5013797;28;21149;-74
2023/02/12 09:41:16;;;;;;;51.90;30.10;;;10.30;99.90;;;;;;5016235;28;20485;-74
2023/02/12 09:43:43;;;;;;;60.00;33.70;;;10.40;99.90;;;;;;5015716;28;20180;-74
2023/02/12 09:46:14;;;;;;;58.27;31.67;;;10.40;99.90;;;;;;5013675;28;20497;-74
2023/02/12 09:48:52;;;;;;;58.20;30.23;;;10.50;99.90;;;;;;5002109;28;20436;-74
2023/02/12 09:51:18;;;;;;;47.60;28.50;;;10.50;99.90;;;;;;5003499;28;20450;-75
2023/02/12 09:53:47;;;;;;;51.73;28.43;;;10.50;99.90;;;;;;5005250;28;20443;-74
2023/02/12 09:56:20;;;;;;;44.43;27.37;;;10.50;99.90;;;;;;5006008;28;20957;-74
2023/02/12 09:58:50;;;;;;;51.07;28.87;;;10.60;99.90;;;;;;5004160;28;20467;-74
2023/02/12 10:01:19;;;;;;;49.70;29.13;;;10.60;99.90;;;;;;5008844;28;20470;-74
2023/02/12 10:03:46;;;;;;;49.70;28.73;;;10.60;99.90;;;;;;5000712;28;20424;-75
2023/02/12 10:06:21;;;;;;;47.03;25.30;;;10.70;99.90;;;;;;4996897;28;20432;-75
2023/02/12 10:08:56;;;;;;;42.63;26.77;;;10.70;99.90;;;;;;4995584;28;20431;-75
2023/02/12 10:11:51;;;;;;;45.47;27.07;;;10.70;99.90;;;;;;4996076;28;20443;-72
2023/02/12 10:14:36;;;;;;;52.90;30.00;;;10.80;99.90;;;;;;5011017;28;20427;-71
2023/02/12 10:17:34;;;;;;;44.40;27.60;;;10.80;99.90;;;;;;5000072;28;20514;-71
2023/02/12 10:20:38;;;;;;;50.83;27.80;;;10.80;99.90;;;;;;5004157;28;20567;-71
2023/02/12 10:23:23;;;;;;;44.97;29.00;;;10.90;99.90;;;;;;5003005;28;20486;-71
2023/02/12 10:25:53;;;;;;;49.27;27.90;;;10.90;99.90;;;;;;5002298;28;20522;-72
2023/02/12 10:28:29;;;;;;;52.03;26.80;;;10.90;99.90;;;;;;5006132;28;20554;-71
2023/02/12 10:31:00;;;;;;;45.60;26.43;;;11.00;99.90;;;;;;4998394;28;20503;-71
2023/02/12 10:33:30;;;;;;;51.97;27.47;;;11.00;99.90;;;;;;4996796;28;20795;-71
2023/02/12 10:36:18;;;;;;;42.43;26.30;;;11.10;99.90;;;;;;4995320;28;20428;-73
2023/02/12 10:38:49;;;;;;;50.10;26.30;;;11.10;99.90;;;;;;5011773;28;20442;-73
2023/02/12 10:41:16;;;;;;;45.70;28.07;;;11.20;99.90;;;;;;4999886;28;20788;-72
2023/02/12 10:43:41;;;;;;;47.00;26.93;;;11.20;99.90;;;;;;4999356;28;20942;-72
2023/02/12 10:46:16;;;;;;;42.87;25.73;;;11.20;99.90;;;;;;4999992;28;20450;-75
2023/02/12 10:48:45;;;;;;;52.90;26.80;;;11.20;99.90;;;;;;5003211;28;20549;-75
2023/02/12 10:51:35;;;;;;;46.50;28.77;;;11.20;99.90;;;;;;5003775;28;20779;-75
2023/02/12 10:54:32;;;;;;;43.00;26.10;;;11.20;99.90;;;;;;5000534;28;21256;-75
2023/02/12 10:57:03;;;;;;;47.13;29.77;;;11.20;99.90;;;;;;4998109;28;20443;-75
2023/02/12 10:59:29;;;;;;;54.83;30.87;;;11.20;99.90;;;;;;4999510;28;20515;-73
2023/02/12 11:01:55;;;;;;;46.90;28.27;;;11.30;99.90;;;;;;4998810;28;20459;-73
2023/02/12 11:04:31;;;;;;;46.37;26.87;;;11.30;99.90;;;;;;5008052;28;20640;-73
2023/02/12 11:07:04;;;;;;;49.77;29.20;;;11.30;99.90;;;;;;5008351;28;20186;-73
2023/02/12 11:09:35;;;;;;;49.90;29.03;;;11.40;99.90;;;;;;5007734;28;20471;-73
2023/02/12 11:12:01;;;;;;;51.33;28.70;;;11.40;99.90;;;;;;5009150;28;20431;-74
2023/02/12 11:14:28;;;;;;;50.00;29.20;;;11.40;99.90;;;;;;5005912;28;20513;-73
2023/02/12 11:16:59;;;;;;;50.53;29.47;;;11.40;99.90;;;;;;5004666;28;20511;-73
2023/02/12 11:19:28;;;;;;;48.30;30.30;;;11.50;99.90;;;;;;5003400;28;20502;-72
2023/02/12 11:22:17;;;;;;;50.70;30.33;;;11.50;99.90;;;;;;4999968;28;20987;-72
2023/02/12 11:24:44;;;;;;;60.30;29.47;;;11.50;99.90;;;;;;4998195;28;20950;-72
2023/02/12 11:27:15;;;;;;;48.93;28.40;;;11.50;99.90;;;;;;5003199;28;20838;-77
2023/02/12 11:29:43;;;;;;;46.80;28.23;;;11.30;99.90;;;;;;5012062;28;20846;-75
2023/02/12 11:32:16;;;;;;;47.00;28.33;;;11.40;99.90;;;;;;5012629;28;20479;-74
2023/02/12 11:34:41;;;;;;;44.73;28.00;;;11.40;99.90;;;;;;5011769;28;20510;-74
2023/02/12 11:37:18;;;;;;;47.03;28.57;;;11.40;99.90;;;;;;5009863;28;20840;-72
2023/02/12 11:39:49;;;;;;;52.40;30.37;;;11.40;99.90;;;;;;5000947;28;20247;-74
2023/02/12 11:42:23;;;;;;;52.93;29.03;;;11.40;99.90;;;;;;5002428;28;20941;-74
2023/02/12 11:44:51;;;;;;;44.20;27.90;;;11.50;99.90;;;;;;5002678;28;20427;-75
2023/02/12 11:47:24;;;;;;;43.17;27.57;;;11.50;99.90;;;;;;5001406;28;20562;-74
2023/02/12 11:49:54;;;;;;;45.83;26.97;;;11.50;99.90;;;;;;5005876;28;20855;-73
2023/02/12 11:52:23;;;;;;;45.53;28.20;;;11.50;99.90;;;;;;5006258;28;20565;-75
2023/02/12 11:54:52;;;;;;;39.40;26.43;;;11.50;99.90;;;;;;5007852;28;20510;-75
2023/02/12 11:57:38;;;;;;;40.63;26.83;;;11.50;99.90;;;;;;4992811;28;20455;-74
2023/02/12 12:00:12;;;;;;;42.77;25.83;;;11.50;99.90;;;;;;5007741;28;20470;-73
2023/02/12 12:02:44;;;;;;;47.80;26.37;;;11.50;99.90;;;;;;4998716;28;20550;-74
2023/02/12 12:05:18;;;;;;;41.07;25.43;;;11.50;99.90;;;;;;5007241;28;20446;-74
2023/02/12 12:07:57;;;;;;;49.90;27.03;;;11.50;99.90;;;;;;5000237;28;20439;-74
2023/02/12 12:10:33;;;;;;;43.80;24.20;;;11.50;99.90;;;;;;5004222;28;20444;-73
2023/02/12 12:13:03;;;;;;;43.83;23.90;;;11.60;99.90;;;;;;5003682;28;20934;-74
2023/02/12 12:21:32;;;;;;;44.67;25.83;;;11.50;99.90;;;;;;4996722;28;20458;-76
2023/02/12 12:24:04;;;;;;;44.43;25.50;;;11.50;99.90;;;;;;5010169;28;20447;-75
2023/02/12 12:26:33;;;;;;;43.60;24.83;;;11.50;99.90;;;;;;4997580;28;20470;-72
2023/02/12 12:29:13;;;;;;;40.67;25.20;;;11.50;99.90;;;;;;4995368;28;20428;-73
2023/02/12 12:31:46;;;;;;;46.13;25.40;;;11.50;99.90;;;;;;4996956;28;20556;-72
2023/02/12 12:34:16;;;;;;;42.20;24.70;;;11.50;99.90;;;;;;5006598;28;20432;-73
2023/02/12 12:37:06;;;;;;;43.03;25.77;;;11.50;99.90;;;;;;5003551;28;20432;-72
2023/02/12 12:39:49;;;;;;;42.27;25.00;;;11.50;99.90;;;;;;5003865;28;20455;-72
2023/02/12 12:42:36;;;;;;;44.00;25.27;;;11.50;99.90;;;;;;5000741;28;20484;-73
2023/02/12 12:45:04;;;;;;;43.63;25.60;;;11.50;99.90;;;;;;5000916;28;20514;-74
2023/02/12 12:48:01;;;;;;;44.00;24.03;;;11.50;99.90;;;;;;4996851;28;20435;-72
2023/02/12 12:50:51;;;;;;;39.23;24.27;;;11.50;99.90;;;;;;5004560;28;20434;-73
2023/02/12 12:53:28;;;;;;;43.63;25.77;;;11.50;99.90;;;;;;4993081;28;20439;-76
2023/02/12 12:56:05;;;;;;;41.53;26.57;;;11.50;99.90;;;;;;4994452;28;20445;-75
2023/02/12 12:58:45;;;;;;;45.03;25.97;;;11.60;99.90;;;;;;5005437;28;20435;-72
2023/02/12 13:01:36;;;;;;;43.50;23.60;;;11.60;99.90;;;;;;5006447;28;20443;-73
2023/02/12 13:04:41;;;;;;;48.23;25.17;;;11.60;99.90;;;;;;5000464;28;20420;-79
2023/02/12 13:07:41;;;;;;;43.53;22.73;;;11.60;99.90;;;;;;5002075;28;20926;-81
2023/02/12 13:10:29;;;;;;;41.87;25.67;;;11.60;99.90;;;;;;5000002;28;20411;-78
2023/02/12 13:13:04;;;;;;;44.70;24.40;;;11.60;99.90;;;;;;5005849;28;20880;-77
2023/02/12 13:15:48;;;;;;;41.20;23.87;;;11.60;99.90;;;;;;5008216;28;20433;-81
2023/02/12 13:18:50;;;;;;;36.60;24.17;;;11.60;99.90;;;;;;4993989;28;20432;-75
2023/02/12 13:21:34;;;;;;;42.47;24.17;;;11.60;99.90;;;;;;4992630;28;20671;-79
2023/02/12 13:24:09;;;;;;;41.30;24.93;;;11.60;99.90;;;;;;4995384;28;20438;-79
2023/02/12 13:26:59;;;;;;;41.07;23.13;;;11.60;99.90;;;;;;5008260;28;20838;-79
2023/02/12 13:29:33;;;;;;;39.27;22.07;;;11.50;99.90;;;;;;5001852;28;20439;-79
2023/02/12 13:32:28;;;;;;;36.67;21.20;;;11.50;99.90;;;;;;5001395;28;20472;-79
2023/02/12 13:34:55;;;;;;;39.17;22.83;;;11.50;99.90;;;;;;5003678;28;20431;-80
2023/02/12 13:37:38;;;;;;;40.27;23.23;;;11.50;99.90;;;;;;5004985;28;20434;-79
2023/02/12 13:40:07;;;;;;;37.20;22.50;;;11.50;99.90;;;;;;4998973;28;20486;-79
2023/02/12 13:42:51;;;;;;;40.33;25.40;;;11.50;99.90;;;;;;4996964;28;20515;-79
2023/02/12 13:45:46;;;;;;;40.60;24.00;;;11.50;99.90;;;;;;5009319;28;20800;-79
2023/02/12 13:48:24;;;;;;;38.67;22.43;;;11.50;99.90;;;;;;4993466;28;20498;-79
2023/02/12 13:51:06;;;;;;;34.57;22.50;;;11.50;99.90;;;;;;5006830;28;20511;-79
2023/02/12 13:53:49;;;;;;;41.10;23.57;;;11.50;99.90;;;;;;5008467;28;20424;-79
2023/02/12 13:56:26;;;;;;;40.10;24.77;;;11.50;99.90;;;;;;5006804;28;20439;-79
2023/02/12 13:58:59;;;;;;;40.97;23.07;;;11.50;99.90;;;;;;5004406;28;20430;-79
2023/02/12 14:01:36;;;;;;;45.03;23.20;;;11.50;99.90;;;;;;5002756;28;20527;-79
2023/02/12 14:04:19;;;;;;;39.83;23.77;;;11.50;99.90;;;;;;5004592;28;20859;-79
2023/02/12 14:06:55;;;;;;;42.57;22.83;;;11.40;99.90;;;;;;4998956;28;20830;-79
2023/02/12 14:09:42;;;;;;;35.90;23.07;;;11.40;99.90;;;;;;4996658;28;20439;-79
2023/02/12 14:12:26;;;;;;;41.43;22.47;;;11.40;99.90;;;;;;5009994;28;20431;-79
2023/02/12 14:14:55;;;;;;;41.30;24.07;;;11.40;99.90;;;;;;4992976;28;20448;-79
2023/02/12 14:17:27;;;;;;;37.33;23.80;;;11.40;99.90;;;;;;4994098;28;20451;-79
2023/02/12 14:20:03;;;;;;;38.17;22.90;;;11.40;99.90;;;;;;5007393;28;20497;-79
2023/02/12 14:22:29;;;;;;;36.20;19.93;;;11.40;99.90;;;;;;5010741;28;20451;-79
2023/02/12 14:24:57;;;;;;;23.73;15.20;;;11.40;99.90;;;;;;5009176;28;20420;-79
2023/02/12 14:27:26;;;;;;;24.10;15.87;;;11.50;99.90;;;;;;5007421;28;20196;-79
2023/02/12 14:30:10;;;;;;;29.60;18.37;;;11.40;99.90;;;;;;5005183;28;20420;-79
2023/02/12 14:32:57;;;;;;;31.13;20.03;;;11.40;99.90;;;;;;5008384;28;20475;-79
2023/02/12 14:35:44;;;;;;;30.70;18.80;;;11.40;99.90;;;;;;5010627;28;20431;-79
2023/02/12 14:38:16;;;;;;;31.87;17.60;;;11.40;99.90;;;;;;4999180;28;20780;-79
2023/02/12 14:40:45;;;;;;;31.37;20.07;;;11.40;99.90;;;;;;5014126;28;20580;-79
2023/02/12 14:43:33;;;;;;;31.47;20.03;;;11.40;99.90;;;;;;4997117;28;20955;-79
2023/02/12 14:46:21;;;;;;;35.47;22.17;;;11.40;99.90;;;;;;5012724;28;20898;-79
2023/02/12 14:49:04;;;;;;;40.23;22.70;;;11.40;99.90;;;;;;5000222;28;20644;-79
2023/02/12 14:52:01;;;;;;;36.63;21.90;;;11.30;99.90;;;;;;5007577;28;20431;-79
2023/02/12 14:54:33;;;;;;;36.87;21.00;;;11.30;99.90;;;;;;5006183;28;20432;-79
2023/02/12 14:57:01;;;;;;;35.13;20.07;;;11.40;99.90;;;;;;5004795;28;20484;-78